createdAt,value
2018-07-13T00:00:58.996Z,0.00
2018-07-13T00:02:51.988Z,0.00
2018-07-13T00:03:52.062Z,0.00
2018-07-13T00:05:45.063Z,0.00
2018-07-13T00:06:45.172Z,0.00
2018-07-13T00:08:38.129Z,0.00
2018-07-13T00:09:38.192Z,0.00
2018-07-13T00:11:31.172Z,0.00
2018-07-13T00:12:31.253Z,0.00
2018-07-13T00:14:24.235Z,0.00
2018-07-13T00:15:24.342Z,0.00
2018-07-13T00:17:17.285Z,0.00
2018-07-13T00:18:17.346Z,0.00
2018-07-13T00:20:10.349Z,0.00
2018-07-13T00:21:10.407Z,0.00
2018-07-13T00:23:03.400Z,0.00
2018-07-13T00:24:03.473Z,0.00
2018-07-13T00:25:56.467Z,0.00
2018-07-13T00:26:56.530Z,0.00
2018-07-13T00:28:49.548Z,0.00
2018-07-13T00:29:49.593Z,0.00
2018-07-13T00:31:42.586Z,0.00
2018-07-13T00:32:42.660Z,0.00
2018-07-13T00:34:35.662Z,0.00
2018-07-13T00:35:35.726Z,0.00
2018-07-13T00:37:28.706Z,0.00
2018-07-13T00:38:28.770Z,0.00
2018-07-13T00:40:21.785Z,0.00
2018-07-13T00:41:21.849Z,0.00
2018-07-13T00:43:14.839Z,0.00
2018-07-13T00:44:14.904Z,0.00
2018-07-13T00:46:07.888Z,0.00
2018-07-13T00:47:07.945Z,0.00
2018-07-13T00:49:00.972Z,0.00
2018-07-13T00:50:01.003Z,0.00
2018-07-13T00:51:54.023Z,0.00
2018-07-13T00:52:54.089Z,0.00
2018-07-13T00:54:47.084Z,0.00
2018-07-13T00:55:47.130Z,0.00
2018-07-13T00:57:40.129Z,0.00
2018-07-13T00:58:40.191Z,0.00
2018-07-13T01:00:33.213Z,0.00
2018-07-13T01:01:33.256Z,0.00
2018-07-13T01:03:26.275Z,0.00
2018-07-13T01:04:26.344Z,0.00
2018-07-13T01:06:19.330Z,0.00
2018-07-13T01:07:19.389Z,0.00
2018-07-13T01:09:12.404Z,0.00
2018-07-13T01:10:12.446Z,0.00
2018-07-13T01:12:05.442Z,0.00
2018-07-13T01:13:05.497Z,0.00
2018-07-13T01:14:58.508Z,0.00
2018-07-13T01:15:58.572Z,0.00
2018-07-13T01:17:51.564Z,0.00
2018-07-13T01:18:51.625Z,0.00
2018-07-13T01:20:44.640Z,0.00
2018-07-13T01:21:44.701Z,0.00
2018-07-13T01:23:38.331Z,0.00
2018-07-13T01:24:38.258Z,0.00
2018-07-13T01:26:31.264Z,0.00
2018-07-13T01:27:31.324Z,0.00
2018-07-13T01:29:24.344Z,0.00
2018-07-13T01:30:24.388Z,0.00
2018-07-13T01:32:17.388Z,0.00
2018-07-13T01:33:17.454Z,0.00
2018-07-13T01:35:10.458Z,0.00
2018-07-13T01:36:10.508Z,0.00
2018-07-13T01:38:03.523Z,0.00
2018-07-13T01:39:03.574Z,0.00
2018-07-13T01:40:56.588Z,0.00
2018-07-13T01:41:56.662Z,0.00
2018-07-13T01:43:49.635Z,0.00
2018-07-13T01:44:49.698Z,0.00
2018-07-13T01:46:42.707Z,0.00
2018-07-13T01:47:42.768Z,0.00
2018-07-13T01:49:35.775Z,0.00
2018-07-13T01:50:35.833Z,0.00
2018-07-13T01:52:28.817Z,0.00
2018-07-13T01:53:28.897Z,0.00
2018-07-13T01:55:21.883Z,0.00
2018-07-13T01:56:21.929Z,0.00
2018-07-13T01:58:14.929Z,0.00
2018-07-13T01:59:14.998Z,0.00
2018-07-13T02:01:07.990Z,0.00
2018-07-13T02:02:08.043Z,0.00
2018-07-13T02:04:01.035Z,0.00
2018-07-13T02:05:01.132Z,0.00
2018-07-13T02:06:54.099Z,0.00
2018-07-13T02:07:54.155Z,0.00
2018-07-13T02:09:47.160Z,0.00
2018-07-13T02:10:47.211Z,0.00
2018-07-13T02:12:40.290Z,0.00
2018-07-13T02:13:40.294Z,0.00
2018-07-13T02:15:33.270Z,0.00
2018-07-13T02:16:33.347Z,0.00
2018-07-13T02:18:26.333Z,0.00
2018-07-13T02:19:26.423Z,0.00
2018-07-13T02:21:19.403Z,0.00
2018-07-13T02:22:19.451Z,0.00
2018-07-13T02:24:13.022Z,0.00
2018-07-13T02:25:13.052Z,0.00
2018-07-13T02:27:06.053Z,0.00
2018-07-13T02:28:06.092Z,0.00
2018-07-13T02:29:59.102Z,0.00
2018-07-13T02:30:59.159Z,0.00
2018-07-13T02:32:52.154Z,0.00
2018-07-13T02:33:52.304Z,0.00
2018-07-13T02:35:45.229Z,0.00
2018-07-13T02:36:45.280Z,0.00
2018-07-13T02:38:38.315Z,0.00
2018-07-13T02:39:38.348Z,0.00
2018-07-13T02:41:31.346Z,0.00
2018-07-13T02:42:31.429Z,0.00
2018-07-13T02:44:24.405Z,0.00
2018-07-13T02:45:24.475Z,0.00
2018-07-13T02:47:17.479Z,0.00
2018-07-13T02:48:17.534Z,0.00
2018-07-13T02:50:10.537Z,0.00
2018-07-13T02:51:10.597Z,0.00
2018-07-13T02:53:03.622Z,0.00
2018-07-13T02:54:03.673Z,0.00
2018-07-13T02:55:56.665Z,0.00
2018-07-13T02:56:56.726Z,0.00
2018-07-13T02:58:49.737Z,0.00
2018-07-13T02:59:49.803Z,0.00
2018-07-13T03:01:42.792Z,0.00
2018-07-13T03:02:42.913Z,0.00
2018-07-13T03:04:35.841Z,0.00
2018-07-13T03:05:35.907Z,0.00
2018-07-13T03:07:28.950Z,0.00
2018-07-13T03:08:28.960Z,0.00
2018-07-13T03:10:21.964Z,0.00
2018-07-13T03:11:22.026Z,0.00
2018-07-13T03:13:15.026Z,0.00
2018-07-13T03:14:15.106Z,0.00
2018-07-13T03:16:08.090Z,0.00
2018-07-13T03:17:08.147Z,5.63
2018-07-13T03:19:01.189Z,5.63
2018-07-13T03:20:01.229Z,5.63
2018-07-13T03:21:54.280Z,5.63
2018-07-13T03:22:54.299Z,5.63
2018-07-13T03:24:47.311Z,5.63
2018-07-13T03:25:47.379Z,5.63
2018-07-13T03:27:40.432Z,5.63
2018-07-13T03:28:40.457Z,5.63
2018-07-13T03:30:33.457Z,5.63
2018-07-13T03:31:33.517Z,5.63
2018-07-13T03:33:26.535Z,11.25
2018-07-13T03:34:26.620Z,11.25
2018-07-13T03:36:19.538Z,11.25
2018-07-13T03:37:19.588Z,11.25
2018-07-13T03:39:12.618Z,11.25
2018-07-13T03:40:12.652Z,11.25
2018-07-13T03:42:05.752Z,11.25
2018-07-13T03:43:05.727Z,11.25
2018-07-13T03:44:58.752Z,16.88
2018-07-13T03:45:58.778Z,16.88
2018-07-13T03:47:51.766Z,16.88
2018-07-13T03:48:51.822Z,16.88
2018-07-13T03:50:44.900Z,22.50
2018-07-13T03:51:44.877Z,22.50
2018-07-13T03:53:37.869Z,22.50
2018-07-13T03:54:37.930Z,22.50
2018-07-13T03:56:30.930Z,28.13
2018-07-13T03:57:31.004Z,28.13
2018-07-13T03:59:23.995Z,28.13
2018-07-13T04:00:24.065Z,28.13
2018-07-13T04:02:17.059Z,33.75
2018-07-13T04:03:17.145Z,33.75
2018-07-13T04:05:10.109Z,39.38
2018-07-13T04:06:10.172Z,45.00
2018-07-13T04:08:03.170Z,61.88
2018-07-13T04:09:03.226Z,67.50
2018-07-13T04:10:56.226Z,61.88
2018-07-13T04:11:56.292Z,56.25
2018-07-13T04:13:49.283Z,61.88
2018-07-13T04:14:49.392Z,67.50
2018-07-13T04:16:42.417Z,67.50
2018-07-13T04:17:42.474Z,73.13
2018-07-13T04:19:35.466Z,90.00
2018-07-13T04:20:35.535Z,95.63
2018-07-13T04:22:28.528Z,101.25
2018-07-13T04:23:28.587Z,106.88
2018-07-13T04:25:21.584Z,118.13
2018-07-13T04:26:21.646Z,118.13
2018-07-13T04:28:14.653Z,123.75
2018-07-13T04:29:14.701Z,123.75
2018-07-13T04:31:07.699Z,129.38
2018-07-13T04:32:07.776Z,135.00
2018-07-13T04:34:00.752Z,163.13
2018-07-13T04:35:00.816Z,157.50
2018-07-13T04:36:53.848Z,157.50
2018-07-13T04:37:53.873Z,163.13
2018-07-13T04:39:46.922Z,174.38
2018-07-13T04:40:46.954Z,174.38
2018-07-13T04:42:39.942Z,185.63
2018-07-13T04:43:40.000Z,185.63
2018-07-13T04:45:33.169Z,202.50
2018-07-13T04:46:33.556Z,202.50
2018-07-13T04:48:27.050Z,208.13
2018-07-13T04:49:27.021Z,208.13
2018-07-13T04:51:19.626Z,236.25
2018-07-13T04:52:19.607Z,258.75
2018-07-13T04:54:12.760Z,281.25
2018-07-13T04:55:12.571Z,292.50
2018-07-13T04:57:05.691Z,286.88
2018-07-13T04:58:05.764Z,281.25
2018-07-13T05:00:10.244Z,298.13
2018-07-13T05:01:10.063Z,286.88
2018-07-13T05:03:03.051Z,298.13
2018-07-13T05:04:03.232Z,298.13
2018-07-13T05:05:56.595Z,315.00
2018-07-13T05:06:57.042Z,303.75
2018-07-13T05:08:49.409Z,298.13
2018-07-13T05:09:49.218Z,303.75
2018-07-13T05:11:42.247Z,331.88
2018-07-13T05:12:42.279Z,337.50
2018-07-13T05:14:35.429Z,354.38
2018-07-13T05:15:35.372Z,382.50
2018-07-13T05:17:28.337Z,388.13
2018-07-13T05:18:28.419Z,371.25
2018-07-13T05:20:21.916Z,399.38
2018-07-13T05:21:21.983Z,421.88
2018-07-13T05:23:14.974Z,500.63
2018-07-13T05:24:15.034Z,568.13
2018-07-13T05:26:08.161Z,444.38
2018-07-13T05:27:08.127Z,399.38
2018-07-13T05:29:01.103Z,405.00
2018-07-13T05:30:01.136Z,421.88
2018-07-13T05:31:54.133Z,433.13
2018-07-13T05:32:54.222Z,388.13
2018-07-13T05:34:47.190Z,388.13
2018-07-13T05:35:47.253Z,382.50
2018-07-13T05:37:40.263Z,376.88
2018-07-13T05:38:40.326Z,365.63
2018-07-13T05:40:33.316Z,376.88
2018-07-13T05:41:33.386Z,376.88
2018-07-13T05:43:26.405Z,382.50
2018-07-13T05:44:26.448Z,416.25
2018-07-13T05:46:19.485Z,427.50
2018-07-13T05:47:19.529Z,405.00
2018-07-13T05:49:12.504Z,410.63
2018-07-13T05:50:12.551Z,405.00
2018-07-13T05:52:05.658Z,393.75
2018-07-13T05:53:05.634Z,421.88
2018-07-13T05:54:58.801Z,421.88
2018-07-13T05:55:58.692Z,466.88
2018-07-13T05:57:51.779Z,495.00
2018-07-13T05:58:51.802Z,528.75
2018-07-13T06:00:44.808Z,697.50
2018-07-13T06:01:44.787Z,748.13
2018-07-13T06:03:37.802Z,759.38
2018-07-13T06:04:37.859Z,810.00
2018-07-13T06:06:30.946Z,675.00
2018-07-13T06:07:30.925Z,624.38
2018-07-13T06:09:23.928Z,579.38
2018-07-13T06:10:23.994Z,568.13
2018-07-13T06:12:17.046Z,596.25
2018-07-13T06:13:17.051Z,579.38
2018-07-13T06:15:10.143Z,444.38
2018-07-13T06:16:10.131Z,455.63
2018-07-13T06:18:03.152Z,399.38
2018-07-13T06:19:03.203Z,388.13
2018-07-13T06:20:56.953Z,427.50
2018-07-13T06:21:56.774Z,506.25
2018-07-13T06:23:49.791Z,787.50
2018-07-13T06:24:49.839Z,1884.38
2018-07-13T06:26:42.895Z,1890.00
2018-07-13T06:27:42.937Z,3133.13
2018-07-13T06:29:35.902Z,832.50
2018-07-13T06:30:35.946Z,703.13
2018-07-13T06:32:28.986Z,534.38
2018-07-13T06:33:29.034Z,545.63
2018-07-13T06:35:22.059Z,461.25
2018-07-13T06:36:22.086Z,461.25
2018-07-13T06:38:15.260Z,461.25
2018-07-13T06:39:15.142Z,450.00
2018-07-13T06:41:08.294Z,472.50
2018-07-13T06:42:08.207Z,511.88
2018-07-13T06:44:01.312Z,483.75
2018-07-13T06:45:01.272Z,495.00
2018-07-13T06:46:54.293Z,506.25
2018-07-13T06:47:54.354Z,500.63
2018-07-13T06:49:47.513Z,517.50
2018-07-13T06:50:47.517Z,545.63
2018-07-13T06:52:40.421Z,607.50
2018-07-13T06:53:40.493Z,748.13
2018-07-13T06:55:33.489Z,675.00
2018-07-13T06:56:33.535Z,1001.25
2018-07-13T06:58:26.546Z,939.38
2018-07-13T06:59:26.601Z,1006.88
2018-07-13T07:01:19.602Z,810.00
2018-07-13T07:02:19.672Z,832.50
2018-07-13T07:04:12.674Z,1186.88
2018-07-13T07:05:12.763Z,1293.75
2018-07-13T07:07:05.735Z,894.38
2018-07-13T07:08:05.812Z,1006.88
2018-07-13T07:09:58.814Z,1175.63
2018-07-13T07:10:58.909Z,1310.63
2018-07-13T07:12:51.870Z,2947.50
2018-07-13T07:13:51.964Z,1119.38
2018-07-13T07:15:44.958Z,1372.50
2018-07-13T07:16:45.017Z,1035.00
2018-07-13T07:18:38.137Z,2126.25
2018-07-13T07:19:38.082Z,1355.63
2018-07-13T07:21:31.072Z,916.88
2018-07-13T07:22:31.138Z,877.50
2018-07-13T07:24:24.193Z,984.38
2018-07-13T07:25:24.388Z,995.63
2018-07-13T07:27:17.268Z,1147.50
2018-07-13T07:28:17.362Z,1316.25
2018-07-13T07:30:10.438Z,2576.25
2018-07-13T07:31:10.375Z,1366.88
2018-07-13T07:33:03.548Z,3870.00
2018-07-13T07:34:03.423Z,4083.75
2018-07-13T07:35:56.455Z,3588.75
2018-07-13T07:36:56.527Z,4336.88
2018-07-13T07:38:49.855Z,1378.13
2018-07-13T07:39:49.639Z,1625.63
2018-07-13T07:41:42.909Z,1563.75
2018-07-13T07:42:42.688Z,2351.25
2018-07-13T07:44:35.903Z,1451.25
2018-07-13T07:45:35.748Z,1333.13
2018-07-13T07:47:28.950Z,1136.25
2018-07-13T07:48:28.832Z,3273.75
2018-07-13T07:50:21.875Z,4415.63
2018-07-13T07:51:21.911Z,4516.88
2018-07-13T07:53:14.957Z,4483.13
2018-07-13T07:54:15.022Z,4657.50
2018-07-13T07:56:08.262Z,4494.38
2018-07-13T07:57:08.111Z,4590.00
2018-07-13T07:59:01.430Z,4674.38
2018-07-13T08:00:01.187Z,2683.13
2018-07-13T08:01:54.473Z,4466.25
2018-07-13T08:02:54.286Z,4353.75
2018-07-13T08:04:47.540Z,4584.38
2018-07-13T08:05:47.376Z,4719.38
2018-07-13T08:07:40.646Z,4730.63
2018-07-13T08:08:40.531Z,4685.63
2018-07-13T08:10:33.709Z,4584.38
2018-07-13T08:11:33.604Z,4775.63
2018-07-13T08:13:26.877Z,4860.00
2018-07-13T08:14:26.807Z,4916.25
2018-07-13T08:16:19.964Z,4831.88
2018-07-13T08:17:19.787Z,4775.63
2018-07-13T08:19:12.840Z,4725.00
2018-07-13T08:20:12.948Z,4837.50
2018-07-13T08:22:06.125Z,4601.25
2018-07-13T08:23:05.994Z,4702.50
2018-07-13T08:24:59.018Z,5068.13
2018-07-13T08:25:59.168Z,5085.00
2018-07-13T08:27:52.381Z,5113.13
2018-07-13T08:28:52.242Z,5141.25
2018-07-13T08:30:45.372Z,5287.50
2018-07-13T08:31:45.328Z,5287.50
2018-07-13T08:33:38.359Z,5208.75
2018-07-13T08:34:38.410Z,5270.63
2018-07-13T08:36:31.735Z,5253.75
2018-07-13T08:37:31.531Z,5118.75
2018-07-13T08:39:24.771Z,5130.00
2018-07-13T08:40:24.641Z,5253.75
2018-07-13T08:42:17.814Z,5158.13
2018-07-13T08:43:17.824Z,5304.38
2018-07-13T08:45:10.830Z,5085.00
2018-07-13T08:46:10.872Z,5416.88
2018-07-13T08:48:04.006Z,5118.75
2018-07-13T08:49:04.016Z,5270.63
2018-07-13T08:50:57.055Z,5456.25
2018-07-13T08:51:57.148Z,5411.25
2018-07-13T08:53:50.207Z,5186.25
2018-07-13T08:54:50.238Z,4983.75
2018-07-13T08:56:43.262Z,5107.50
2018-07-13T08:57:43.309Z,5068.13
2018-07-13T08:59:36.468Z,5405.63
2018-07-13T09:00:36.466Z,5456.25
2018-07-13T09:02:29.543Z,5450.63
2018-07-13T09:03:29.540Z,5169.38
2018-07-13T09:05:22.602Z,5191.88
2018-07-13T09:06:22.699Z,5214.38
2018-07-13T09:08:15.778Z,5113.13
2018-07-13T09:09:15.809Z,5062.50
2018-07-13T09:11:08.846Z,4871.25
2018-07-13T09:12:08.910Z,4601.25
2018-07-13T09:14:02.000Z,4770.00
2018-07-13T09:15:02.021Z,4843.13
2018-07-13T09:16:55.072Z,4663.13
2018-07-13T09:17:55.171Z,4387.50
2018-07-13T09:19:48.561Z,4764.38
2018-07-13T09:20:48.282Z,4567.50
2018-07-13T09:22:41.359Z,4651.88
2018-07-13T09:23:41.443Z,4792.50
2018-07-13T09:25:34.500Z,4961.25
2018-07-13T09:26:34.499Z,4955.63
2018-07-13T09:28:27.526Z,4809.38
2018-07-13T09:29:27.623Z,4905.00
2018-07-13T09:31:20.775Z,5068.13
2018-07-13T09:32:20.724Z,4910.63
2018-07-13T09:34:13.772Z,4201.88
2018-07-13T09:35:13.846Z,2086.88
2018-07-13T09:37:06.880Z,579.38
2018-07-13T09:38:07.236Z,534.38
2018-07-13T09:40:00.009Z,495.00
2018-07-13T09:41:00.054Z,489.38
2018-07-13T09:42:53.167Z,483.75
2018-07-13T09:43:53.348Z,478.13
2018-07-13T09:45:46.310Z,466.88
2018-07-13T09:46:46.537Z,466.88
2018-07-13T09:48:39.623Z,466.88
2018-07-13T09:49:39.391Z,472.50
2018-07-13T09:51:32.638Z,478.13
2018-07-13T09:52:32.798Z,472.50
2018-07-13T09:54:25.514Z,455.63
2018-07-13T09:55:25.684Z,455.63
2018-07-13T09:57:18.641Z,450.00
2018-07-13T09:58:18.970Z,450.00
2018-07-13T10:01:13.348Z,455.63
2018-07-13T10:03:05.406Z,455.63
2018-07-13T10:04:05.054Z,455.63
2018-07-13T10:05:58.080Z,444.38
2018-07-13T10:06:58.555Z,444.38
2018-07-13T10:08:51.196Z,433.13
2018-07-13T10:09:51.604Z,427.50
2018-07-13T10:11:44.562Z,416.25
2018-07-13T10:12:44.326Z,416.25
2018-07-13T10:14:37.535Z,416.25
2018-07-13T10:15:37.415Z,421.88
2018-07-13T10:17:30.426Z,410.63
2018-07-13T10:18:30.737Z,410.63
2018-07-13T10:20:24.149Z,405.00
2018-07-13T10:21:24.187Z,393.75
2018-07-13T10:23:17.355Z,382.50
2018-07-13T10:24:17.303Z,382.50
2018-07-13T10:26:10.243Z,393.75
2018-07-13T10:27:10.324Z,393.75
2018-07-13T10:29:03.270Z,393.75
2018-07-13T10:30:03.689Z,393.75
2018-07-13T10:31:56.676Z,388.13
2018-07-13T10:32:56.417Z,382.50
2018-07-13T10:34:49.623Z,376.88
2018-07-13T10:35:49.500Z,376.88
2018-07-13T10:37:42.845Z,365.63
2018-07-13T10:38:42.586Z,360.00
2018-07-13T10:40:35.733Z,360.00
2018-07-13T10:41:36.288Z,354.38
2018-07-13T10:43:28.821Z,354.38
2018-07-13T10:44:28.927Z,354.38
2018-07-13T10:46:21.858Z,348.75
2018-07-13T10:47:21.965Z,348.75
2018-07-13T10:49:14.984Z,348.75
2018-07-13T10:50:14.922Z,348.75
2018-07-13T10:52:08.144Z,348.75
2018-07-13T10:53:07.988Z,348.75
2018-07-13T10:55:01.135Z,348.75
2018-07-13T10:56:01.073Z,348.75
2018-07-13T10:57:54.119Z,343.13
2018-07-13T10:58:54.144Z,343.13
2018-07-13T11:00:47.229Z,337.50
2018-07-13T11:01:47.222Z,337.50
2018-07-13T11:03:40.398Z,337.50
2018-07-13T11:04:40.384Z,337.50
2018-07-13T11:06:33.562Z,337.50
2018-07-13T11:07:33.378Z,337.50
2018-07-13T11:09:26.456Z,331.88
2018-07-13T11:10:26.457Z,331.88
2018-07-13T11:12:19.468Z,331.88
2018-07-13T11:13:19.533Z,326.25
2018-07-13T11:15:12.876Z,326.25
2018-07-13T11:16:12.611Z,320.63
2018-07-13T11:18:06.006Z,320.63
2018-07-13T11:19:05.695Z,315.00
2018-07-13T11:20:59.568Z,315.00
2018-07-13T11:21:59.622Z,315.00
2018-07-13T11:23:52.739Z,315.00
2018-07-13T11:24:52.821Z,315.00
2018-07-13T11:26:45.512Z,309.38
2018-07-13T11:27:45.423Z,309.38
2018-07-13T11:29:38.442Z,303.75
2018-07-13T11:30:38.499Z,298.13
2018-07-13T11:32:31.515Z,298.13
2018-07-13T11:33:31.577Z,298.13
2018-07-13T11:35:24.589Z,298.13
2018-07-13T11:36:24.652Z,298.13
2018-07-13T11:38:17.657Z,298.13
2018-07-13T11:39:17.733Z,292.50
2018-07-13T11:41:10.738Z,292.50
2018-07-13T11:42:10.800Z,292.50
2018-07-13T11:44:03.810Z,292.50
2018-07-13T11:45:03.886Z,286.88
2018-07-13T11:46:56.884Z,286.88
2018-07-13T11:47:56.945Z,286.88
2018-07-13T11:49:49.952Z,292.50
2018-07-13T11:50:50.024Z,292.50
2018-07-13T11:52:43.031Z,292.50
2018-07-13T11:53:43.099Z,286.88
2018-07-13T11:55:36.124Z,286.88
2018-07-13T11:56:36.187Z,281.25
2018-07-13T11:58:29.208Z,281.25
2018-07-13T11:59:29.269Z,275.63
2018-07-13T12:01:22.269Z,281.25
2018-07-13T12:02:22.355Z,286.88
2018-07-13T12:04:15.381Z,281.25
2018-07-13T12:05:15.421Z,281.25
2018-07-13T12:07:08.427Z,281.25
2018-07-13T12:08:08.854Z,275.63
2018-07-13T12:10:01.574Z,275.63
2018-07-13T12:11:01.584Z,275.63
2018-07-13T12:12:54.577Z,275.63
2018-07-13T12:13:54.649Z,275.63
2018-07-13T12:15:47.650Z,275.63
2018-07-13T12:16:47.711Z,275.63
2018-07-13T12:18:40.718Z,275.63
2018-07-13T12:19:40.786Z,275.63
2018-07-13T12:21:33.795Z,298.13
2018-07-13T12:22:33.857Z,303.75
2018-07-13T12:24:26.864Z,292.50
2018-07-13T12:25:26.930Z,292.50
2018-07-13T12:27:19.941Z,275.63
2018-07-13T12:28:20.001Z,270.00
2018-07-13T12:30:13.006Z,275.63
2018-07-13T12:31:13.071Z,270.00
2018-07-13T12:33:06.159Z,264.38
2018-07-13T12:34:06.147Z,270.00
2018-07-13T12:35:59.191Z,264.38
2018-07-13T12:36:59.231Z,270.00
2018-07-13T12:38:52.233Z,270.00
2018-07-13T12:39:52.370Z,270.00
2018-07-13T12:41:45.826Z,270.00
2018-07-13T12:42:45.883Z,270.00
2018-07-13T12:44:38.889Z,264.38
2018-07-13T12:45:38.957Z,264.38
2018-07-13T12:47:31.966Z,281.25
2018-07-13T12:48:32.025Z,292.50
2018-07-13T12:50:25.035Z,303.75
2018-07-13T12:51:25.104Z,292.50
2018-07-13T12:53:18.117Z,292.50
2018-07-13T12:54:18.237Z,281.25
2018-07-13T12:56:11.192Z,275.63
2018-07-13T12:57:11.260Z,275.63
2018-07-13T12:59:04.261Z,270.00
2018-07-13T13:00:04.329Z,270.00
2018-07-13T13:01:57.337Z,270.00
2018-07-13T13:02:57.398Z,270.00
2018-07-13T13:04:50.414Z,275.63
2018-07-13T13:05:50.475Z,275.63
2018-07-13T13:07:43.484Z,303.75
2018-07-13T13:08:43.547Z,320.63
2018-07-13T13:10:36.550Z,337.50
2018-07-13T13:11:36.621Z,326.25
2018-07-13T13:13:29.668Z,303.75
2018-07-13T13:14:29.703Z,298.13
2018-07-13T13:16:22.802Z,303.75
2018-07-13T13:17:22.779Z,292.50
2018-07-13T13:19:15.784Z,286.88
2018-07-13T13:20:15.864Z,286.88
2018-07-13T13:22:09.400Z,303.75
2018-07-13T13:23:09.450Z,309.38
2018-07-13T13:25:02.438Z,315.00
2018-07-13T13:26:02.532Z,326.25
2018-07-13T13:27:55.591Z,331.88
2018-07-13T13:28:55.618Z,326.25
2018-07-13T13:30:48.599Z,286.88
2018-07-13T13:31:48.685Z,281.25
2018-07-13T13:33:41.657Z,281.25
2018-07-13T13:34:41.744Z,286.88
2018-07-13T13:36:34.727Z,303.75
2018-07-13T13:37:34.793Z,315.00
2018-07-13T13:39:27.797Z,354.38
2018-07-13T13:40:27.884Z,365.63
2018-07-13T13:42:20.878Z,393.75
2018-07-13T13:43:20.954Z,405.00
2018-07-13T13:45:13.956Z,461.25
2018-07-13T13:46:14.015Z,433.13
2018-07-13T13:48:07.073Z,416.25
2018-07-13T13:49:07.091Z,399.38
2018-07-13T13:51:00.162Z,309.38
2018-07-13T13:52:00.173Z,281.25
2018-07-13T13:53:53.188Z,253.13
2018-07-13T13:54:53.244Z,264.38
2018-07-13T13:56:46.256Z,292.50
2018-07-13T13:57:46.363Z,309.38
2018-07-13T13:59:39.325Z,348.75
2018-07-13T14:00:39.404Z,326.25
2018-07-13T14:02:32.435Z,264.38
2018-07-13T14:03:32.474Z,264.38
2018-07-13T14:05:25.541Z,275.63
2018-07-13T14:06:25.546Z,264.38
2018-07-13T14:08:18.555Z,275.63
2018-07-13T14:09:18.705Z,292.50
2018-07-13T14:11:11.627Z,286.88
2018-07-13T14:12:11.805Z,281.25
2018-07-13T14:14:04.767Z,315.00
2018-07-13T14:15:04.789Z,298.13
2018-07-13T14:16:57.795Z,270.00
2018-07-13T14:17:57.873Z,264.38
2018-07-13T14:19:50.854Z,253.13
2018-07-13T14:20:50.919Z,219.38
2018-07-13T14:22:43.944Z,253.13
2018-07-13T14:23:44.000Z,258.75
2018-07-13T14:25:37.064Z,270.00
2018-07-13T14:26:37.083Z,275.63
2018-07-13T14:28:30.086Z,281.25
2018-07-13T14:29:30.146Z,292.50
2018-07-13T14:31:23.167Z,298.13
2018-07-13T14:32:23.338Z,286.88
2018-07-13T14:34:16.311Z,281.25
2018-07-13T14:35:16.301Z,270.00
2018-07-13T14:37:09.304Z,219.38
2018-07-13T14:38:09.367Z,219.38
2018-07-13T14:40:02.442Z,258.75
2018-07-13T14:41:02.449Z,270.00
2018-07-13T14:42:55.459Z,270.00
2018-07-13T14:43:55.519Z,275.63
2018-07-13T14:45:48.524Z,298.13
2018-07-13T14:46:48.648Z,309.38
2018-07-13T14:48:41.606Z,320.63
2018-07-13T14:49:41.666Z,303.75
2018-07-13T14:51:34.671Z,253.13
2018-07-13T14:52:34.740Z,247.50
2018-07-13T14:54:27.751Z,208.13
2018-07-13T14:55:27.815Z,202.50
2018-07-13T14:57:20.833Z,208.13
2018-07-13T14:58:20.895Z,247.50
2018-07-13T15:00:13.937Z,241.88
2018-07-13T15:01:14.004Z,219.38
2018-07-13T15:03:07.012Z,225.00
2018-07-13T15:04:07.103Z,236.25
2018-07-13T15:06:00.132Z,241.88
2018-07-13T15:07:00.149Z,247.50
2018-07-13T15:08:53.159Z,253.13
2018-07-13T15:09:53.221Z,247.50
2018-07-13T15:11:46.228Z,258.75
2018-07-13T15:12:46.292Z,264.38
2018-07-13T15:14:39.301Z,292.50
2018-07-13T15:15:39.362Z,309.38
2018-07-13T15:17:32.382Z,326.25
2018-07-13T15:18:32.459Z,331.88
2018-07-13T15:20:25.442Z,337.50
2018-07-13T15:21:25.514Z,343.13
2018-07-13T15:23:18.546Z,315.00
2018-07-13T15:24:18.581Z,298.13
2018-07-13T15:26:11.588Z,270.00
2018-07-13T15:27:11.654Z,258.75
2018-07-13T15:29:04.716Z,247.50
2018-07-13T15:30:04.730Z,247.50
2018-07-13T15:31:57.847Z,208.13
2018-07-13T15:32:57.797Z,236.25
2018-07-13T15:34:50.948Z,230.63
2018-07-13T15:35:50.966Z,230.63
2018-07-13T15:37:43.941Z,230.63
2018-07-13T15:38:44.044Z,230.63
2018-07-13T15:40:37.161Z,225.00
2018-07-13T15:41:37.448Z,225.00
2018-07-13T15:43:30.384Z,225.00
2018-07-13T15:44:30.402Z,225.00
2018-07-13T15:46:23.595Z,225.00
2018-07-13T15:47:23.550Z,225.00
2018-07-13T15:49:17.143Z,225.00
2018-07-13T15:50:16.478Z,225.00
2018-07-13T15:52:09.670Z,225.00
2018-07-13T15:53:10.706Z,225.00
2018-07-13T15:55:02.749Z,219.38
2018-07-13T15:56:02.438Z,219.38
2018-07-13T15:57:55.870Z,219.38
2018-07-13T15:58:55.753Z,213.75
2018-07-13T16:00:48.632Z,213.75
2018-07-13T16:01:48.683Z,213.75
2018-07-13T16:03:41.762Z,213.75
2018-07-13T16:04:41.646Z,213.75
2018-07-13T16:06:34.799Z,208.13
2018-07-13T16:07:34.734Z,208.13
2018-07-13T16:09:27.816Z,208.13
2018-07-13T16:10:27.794Z,208.13
2018-07-13T16:12:20.804Z,208.13
2018-07-13T16:13:21.096Z,208.13
2018-07-13T16:15:13.909Z,185.63
2018-07-13T16:16:13.985Z,196.88
2018-07-13T16:18:06.962Z,202.50
2018-07-13T16:19:07.100Z,202.50
2018-07-13T16:21:00.067Z,202.50
2018-07-13T16:22:00.089Z,202.50
2018-07-13T16:23:53.097Z,202.50
2018-07-13T16:24:53.166Z,202.50
2018-07-13T16:26:46.215Z,202.50
2018-07-13T16:27:46.236Z,202.50
2018-07-13T16:29:39.274Z,202.50
2018-07-13T16:30:39.377Z,202.50
2018-07-13T16:32:33.838Z,196.88
2018-07-13T16:33:33.918Z,196.88
2018-07-13T16:35:27.112Z,196.88
2018-07-13T16:36:26.976Z,196.88
2018-07-13T16:38:20.002Z,163.13
2018-07-13T16:39:20.096Z,157.50
2018-07-13T16:41:13.049Z,151.88
2018-07-13T16:42:13.191Z,157.50
2018-07-13T16:44:06.153Z,174.38
2018-07-13T16:45:06.356Z,157.50
2018-07-13T16:46:59.222Z,157.50
2018-07-13T16:47:59.276Z,157.50
2018-07-13T16:49:52.287Z,157.50
2018-07-13T16:50:52.435Z,157.50
2018-07-13T16:52:45.352Z,191.25
2018-07-13T16:53:45.437Z,191.25
2018-07-13T16:55:38.506Z,163.13
2018-07-13T16:56:38.593Z,157.50
2018-07-13T16:58:31.504Z,163.13
2018-07-13T16:59:31.787Z,168.75
2018-07-13T17:01:24.577Z,185.63
2018-07-13T17:02:24.645Z,196.88
2018-07-13T17:04:17.648Z,208.13
2018-07-13T17:05:17.710Z,213.75
2018-07-13T17:07:10.711Z,230.63
2018-07-13T17:08:10.780Z,219.38
2018-07-13T17:10:03.792Z,208.13
2018-07-13T17:11:03.858Z,208.13
2018-07-13T17:12:56.905Z,202.50
2018-07-13T17:13:56.987Z,202.50
2018-07-13T17:15:49.986Z,168.75
2018-07-13T17:16:50.061Z,168.75
2018-07-13T17:18:43.048Z,185.63
2018-07-13T17:19:43.109Z,174.38
2018-07-13T17:21:36.118Z,168.75
2018-07-13T17:22:36.181Z,163.13
2018-07-13T17:24:29.220Z,185.63
2018-07-13T17:25:29.249Z,185.63
2018-07-13T17:27:22.254Z,185.63
2018-07-13T17:28:22.323Z,185.63
2018-07-13T17:30:15.330Z,180.00
2018-07-13T17:31:15.394Z,180.00
2018-07-13T17:33:08.397Z,180.00
2018-07-13T17:34:08.463Z,180.00
2018-07-13T17:36:02.975Z,180.00
2018-07-13T17:37:03.040Z,180.00
2018-07-13T17:38:56.054Z,174.38
2018-07-13T17:39:56.156Z,174.38
2018-07-13T17:41:49.119Z,174.38
2018-07-13T17:42:49.247Z,174.38
2018-07-13T17:44:42.314Z,168.75
2018-07-13T17:45:42.259Z,168.75
2018-07-13T17:47:35.261Z,163.13
2018-07-13T17:48:35.331Z,163.13
2018-07-13T17:50:28.342Z,157.50
2018-07-13T17:51:28.405Z,157.50
2018-07-13T17:53:21.420Z,157.50
2018-07-13T17:54:21.479Z,157.50
2018-07-13T17:56:14.486Z,163.13
2018-07-13T17:57:14.548Z,163.13
2018-07-13T17:59:07.555Z,157.50
2018-07-13T18:00:07.619Z,151.88
2018-07-13T18:02:00.627Z,146.25
2018-07-13T18:03:00.690Z,146.25
2018-07-13T18:04:53.701Z,140.63
2018-07-13T18:05:53.763Z,140.63
2018-07-13T18:07:46.766Z,135.00
2018-07-13T18:08:46.835Z,135.00
2018-07-13T18:10:39.840Z,135.00
2018-07-13T18:11:39.905Z,129.38